Northwest Sanderling — VNVZ — position and weather

sailwx.info

Track history (hours):
 
Tides and Currents Weather Stations Pressure Air Temp Water Temp Dewpoint Dewpoint Depression Visibility Wind Speed Wind Dir Waves Ship Positions

Northwest Sanderling

Last reported at 2016-May-30 05:31 UTC. Time now 2016-May-31 20:00 UTC.
Position S 19°15' E 117°53'.

Length 272 m; beam 47.2 m; draft 11.4 m.

Type: Tanker. MMSI: 503000050.

Date/timePositionNaut miles runAvg speedWind from/ knotsBaromVisibWave heightAir tempDewpointWater temp
2016-May-30 05:31S 19°15' E 117°53'1 0.9
2016-May-30 04:33S 19°15' E 117°52'1 0.7
2016-May-30 03:32S 19°14' E 117°52'0 0.4
2016-May-30 02:33S 19°14' E 117°51'0 0.1
2016-May-30 01:32S 19°14' E 117°51'0 0.1
2016-May-30 00:33S 19°14' E 117°51'4 6.8
2016-May-30 00:00S 19°12' E 117°48'511.4 250 / 81013.310.8 0.527.019.328.2
2016-May-29 23:33S 19°13' E 117°53'9 1.4
2016-May-29 17:04S 19°22' E 117°58'0 0.9
2016-May-29 16:33S 19°22' E 117°58'1 0.4
2016-May-29 14:26S 19°23' E 117°57'2 1.8
2016-May-29 13:33S 19°21' E 117°57'4 0.2
2016-May-28 19:23S 19°17' E 117°57'5 0.6
2016-May-28 10:17S 19°15' E 117°53'2 0.3
2016-May-28 04:28S 19°16' E 117°51'68 3.4
2016-May-27 08:22S 18°09' E 117°44'53 4.1
2016-May-26 19:29S 18°54' E 117°16'135 6.9
2016-May-26 00:00S 16°42' E 116°48'26010.8 140 / 181014.910.8 0.528.022.129.8
2016-May-25 00:00S 12°24' E 116°12'   070 / 101012.710.8 1.025.023.230.2
2016-May-21 01:13N 01°16' E 104°15'812.8
2016-May-21 00:34N 01°16' E 104°07'4 3.4
2016-May-20 23:29N 01°19' E 104°05'0 0.0
2016-May-20 21:29N 01°19' E 104°05'0 0.1
2016-May-20 20:28N 01°19' E 104°05'0 0.0
2016-May-20 19:22N 01°19' E 104°05'0 0.0
2016-May-20 16:23N 01°19' E 104°05'0 0.1
2016-May-20 14:16N 01°19' E 104°04'0 0.0
2016-May-20 13:28N 01°19' E 104°04'0 0.0
2016-May-20 11:28N 01°19' E 104°04'0 0.0
2016-May-20 10:29N 01°19' E 104°04'1 1.3
2016-May-20 09:29N 01°18' E 104°05'5 5.8
2016-May-20 08:33N 01°17' E 104°11'5 3.2
2016-May-20 07:04N 01°14' E 104°14'2 4.7
2016-May-20 06:32N 01°15' E 104°11'  
Track history (hours):
 
Tides and Currents Weather Stations Pressure Air Temp Water Temp Dewpoint Dewpoint Depression Visibility Wind Speed Wind Dir Waves Ship Positions

Northwest Sanderling

Last reported at 2016-May-30 05:31 UTC. Time now 2016-May-31 20:00 UTC.
Position S 19°15' E 117°53'.

Length 272 m; beam 47.2 m; draft 11.4 m.

Type: Tanker. MMSI: 503000050.

Date/timePositionNaut miles runAvg speedWind from/ knotsBaromVisibWave heightAir tempDewpointWater temp
2016-May-30 05:31S 19°15' E 117°53'1 0.9
2016-May-30 04:33S 19°15' E 117°52'1 0.7
2016-May-30 03:32S 19°14' E 117°52'0 0.4
2016-May-30 02:33S 19°14' E 117°51'0 0.1
2016-May-30 01:32S 19°14' E 117°51'0 0.1
2016-May-30 00:33S 19°14' E 117°51'4 6.8
2016-May-30 00:00S 19°12' E 117°48'511.4 250 / 81013.310.8 0.527.019.328.2
2016-May-29 23:33S 19°13' E 117°53'9 1.4
2016-May-29 17:04S 19°22' E 117°58'0 0.9
2016-May-29 16:33S 19°22' E 117°58'1 0.4
2016-May-29 14:26S 19°23' E 117°57'2 1.8
2016-May-29 13:33S 19°21' E 117°57'4 0.2
2016-May-28 19:23S 19°17' E 117°57'5 0.6
2016-May-28 10:17S 19°15' E 117°53'2 0.3
2016-May-28 04:28S 19°16' E 117°51'68 3.4
2016-May-27 08:22S 18°09' E 117°44'53 4.1
2016-May-26 19:29S 18°54' E 117°16'135 6.9
2016-May-26 00:00S 16°42' E 116°48'26010.8 140 / 181014.910.8 0.528.022.129.8
2016-May-25 00:00S 12°24' E 116°12'   070 / 101012.710.8 1.025.023.230.2
2016-May-21 01:13N 01°16' E 104°15'812.8
2016-May-21 00:34N 01°16' E 104°07'4 3.4
2016-May-20 23:29N 01°19' E 104°05'0 0.0
2016-May-20 21:29N 01°19' E 104°05'0 0.1
2016-May-20 20:28N 01°19' E 104°05'0 0.0
2016-May-20 19:22N 01°19' E 104°05'0 0.0
2016-May-20 16:23N 01°19' E 104°05'0 0.1
2016-May-20 14:16N 01°19' E 104°04'0 0.0
2016-May-20 13:28N 01°19' E 104°04'0 0.0
2016-May-20 11:28N 01°19' E 104°04'0 0.0
2016-May-20 10:29N 01°19' E 104°04'1 1.3
2016-May-20 09:29N 01°18' E 104°05'5 5.8
2016-May-20 08:33N 01°17' E 104°11'5 3.2
2016-May-20 07:04N 01°14' E 104°14'2 4.7
2016-May-20 06:32N 01°15' E 104°11'  

Dump ship's entire track history